createdAt,value
2022-09-01T00:01:21.336Z,100.00
2022-09-01T00:03:52.840Z,100.00
2022-09-01T00:06:24.349Z,100.00
2022-09-01T00:08:53.532Z,100.00
2022-09-01T00:11:22.702Z,100.00
2022-09-01T00:13:51.756Z,100.00
2022-09-01T00:16:21.012Z,100.00
2022-09-01T00:18:51.523Z,100.00
2022-09-01T00:21:25.050Z,100.00
2022-09-01T00:23:53.054Z,100.00
2022-09-01T00:26:21.276Z,100.00
2022-09-01T00:28:49.696Z,100.00
2022-09-01T00:31:19.992Z,100.00
2022-09-01T00:33:48.989Z,100.00
2022-09-01T00:36:17.175Z,100.00
2022-09-01T00:38:46.908Z,100.00
2022-09-01T00:41:16.428Z,100.00
2022-09-01T00:43:46.882Z,99.83
2022-09-01T00:46:20.468Z,99.62
2022-09-01T00:49:01.922Z,99.44
2022-09-01T00:51:30.531Z,98.87
2022-09-01T00:54:00.177Z,98.88
2022-09-01T00:56:28.370Z,98.90
2022-09-01T00:58:56.152Z,99.09
2022-09-01T01:01:28.000Z,98.49
2022-09-01T01:03:56.230Z,98.25
2022-09-01T01:06:31.784Z,98.24
2022-09-01T01:09:02.250Z,98.03
2022-09-01T01:11:32.415Z,98.19
2022-09-01T01:14:05.837Z,98.54
2022-09-01T01:16:36.512Z,98.83
2022-09-01T01:19:05.674Z,99.22
2022-09-01T01:21:56.741Z,98.80
2022-09-01T01:24:28.383Z,98.92
2022-09-01T01:26:59.717Z,99.16
2022-09-01T01:29:29.759Z,99.03
2022-09-01T01:31:57.680Z,99.68
2022-09-01T01:34:25.557Z,99.60
2022-09-01T01:36:54.024Z,99.90
2022-09-01T01:39:25.402Z,99.87
2022-09-01T01:41:57.051Z,100.00
2022-09-01T01:44:27.918Z,100.00
2022-09-01T01:46:58.413Z,100.00
2022-09-01T01:49:29.149Z,100.00
2022-09-01T01:51:58.058Z,100.00
2022-09-01T01:54:32.444Z,100.00
2022-09-01T01:57:05.327Z,100.00
2022-09-01T01:59:41.111Z,100.00
2022-09-01T02:02:09.822Z,100.00
2022-09-01T02:04:40.111Z,100.00
2022-09-01T02:07:12.004Z,100.00
2022-09-01T02:09:44.034Z,100.00
2022-09-01T02:12:15.622Z,100.00
2022-09-01T02:14:44.041Z,100.00
2022-09-01T02:17:12.111Z,100.00
2022-09-01T02:19:43.309Z,100.00
2022-09-01T02:22:11.642Z,100.00
2022-09-01T02:24:46.483Z,100.00
2022-09-01T02:27:22.003Z,100.00
2022-09-01T02:29:55.470Z,100.00
2022-09-01T02:32:23.313Z,100.00
2022-09-01T02:34:53.826Z,100.00
2022-09-01T02:37:25.436Z,100.00
2022-09-01T02:39:53.945Z,100.00
2022-09-01T02:42:27.637Z,100.00
2022-09-01T02:44:56.047Z,100.00
2022-09-01T02:47:28.119Z,100.00
2022-09-01T02:49:58.590Z,100.00
2022-09-01T02:52:29.786Z,100.00
2022-09-01T02:54:57.858Z,100.00
2022-09-01T02:57:29.544Z,100.00
2022-09-01T03:00:00.155Z,100.00
2022-09-01T03:02:28.871Z,100.00
2022-09-01T03:04:57.560Z,100.00
2022-09-01T03:07:27.013Z,100.00
2022-09-01T03:09:54.798Z,100.00
2022-09-01T03:12:22.839Z,100.00
2022-09-01T03:14:52.095Z,100.00
2022-09-01T03:17:21.720Z,100.00
2022-09-01T03:19:51.840Z,100.00
2022-09-01T03:22:19.580Z,100.00
2022-09-01T03:24:47.393Z,100.00
2022-09-01T03:27:15.253Z,100.00
2022-09-01T03:29:43.025Z,100.00
2022-09-01T03:32:14.654Z,100.00
2022-09-01T03:34:42.507Z,100.00
2022-09-01T03:37:12.198Z,100.00
2022-09-01T03:39:43.463Z,100.00
2022-09-01T03:42:12.788Z,100.00
2022-09-01T03:44:42.007Z,100.00
2022-09-01T03:47:15.305Z,100.00
2022-09-01T03:49:45.473Z,100.00
2022-09-01T03:52:13.448Z,100.00
2022-09-01T03:54:41.326Z,100.00
2022-09-01T03:57:10.101Z,100.00
2022-09-01T03:59:43.448Z,100.00
2022-09-01T04:02:15.176Z,100.00
2022-09-01T04:04:44.617Z,100.00
2022-09-01T04:07:18.997Z,100.00
2022-09-01T04:09:47.462Z,100.00
2022-09-01T04:12:15.811Z,100.00
2022-09-01T04:14:43.567Z,100.00
2022-09-01T04:24:47.272Z,100.00
2022-09-01T04:27:18.092Z,100.00
2022-09-01T04:29:47.061Z,100.00
2022-09-01T04:32:16.131Z,100.00
2022-09-01T04:34:44.032Z,100.00
2022-09-01T04:37:14.901Z,100.00
2022-09-01T04:39:51.337Z,100.00
2022-09-01T04:42:21.777Z,100.00
2022-09-01T04:44:49.778Z,100.00
2022-09-01T04:47:19.900Z,100.00
2022-09-01T04:49:49.020Z,100.00
2022-09-01T04:52:17.066Z,100.00
2022-09-01T04:54:45.251Z,100.00
2022-09-01T04:57:13.414Z,100.00
2022-09-01T04:59:43.225Z,100.00
2022-09-01T05:02:11.401Z,100.00
2022-09-01T05:04:40.397Z,100.00
2022-09-01T05:07:08.692Z,100.00
2022-09-01T05:09:38.291Z,100.00
2022-09-01T05:12:12.926Z,100.00
2022-09-01T05:14:48.463Z,100.00
2022-09-01T05:17:17.330Z,100.00
2022-09-01T05:19:48.653Z,100.00
2022-09-01T05:22:17.792Z,100.00
2022-09-01T05:24:45.954Z,100.00
2022-09-01T05:27:15.198Z,100.00
2022-09-01T05:29:43.087Z,100.00
2022-09-01T05:32:12.650Z,100.00
2022-09-01T05:34:43.908Z,100.00
2022-09-01T05:37:13.133Z,100.00
2022-09-01T05:39:45.354Z,100.00
2022-09-01T05:42:13.538Z,100.00
2022-09-01T05:44:45.118Z,100.00
2022-09-01T05:47:20.437Z,100.00
2022-09-01T05:49:49.961Z,100.00
2022-09-01T05:52:17.933Z,100.00
2022-09-01T05:54:48.034Z,98.86
2022-09-01T05:57:33.807Z,93.33
2022-09-01T06:00:02.345Z,88.57
2022-09-01T06:02:33.888Z,84.92
2022-09-01T06:05:01.652Z,81.79
2022-09-01T06:07:29.414Z,80.56
2022-09-01T06:09:57.339Z,79.87
2022-09-01T06:12:26.753Z,79.64
2022-09-01T06:14:56.086Z,79.71
2022-09-01T06:17:25.881Z,78.91
2022-09-01T06:19:56.899Z,77.42
2022-09-01T06:22:26.471Z,75.77
2022-09-01T06:24:59.561Z,76.13
2022-09-01T06:27:30.132Z,76.49
2022-09-01T06:29:58.455Z,74.39
2022-09-01T06:32:27.248Z,75.02
2022-09-01T06:34:58.287Z,75.09
2022-09-01T06:37:26.775Z,73.64
2022-09-01T06:39:54.603Z,73.71
2022-09-01T06:42:23.558Z,72.27
2022-09-01T06:44:51.818Z,71.65
2022-09-01T06:47:19.578Z,72.17
2022-09-01T06:49:47.424Z,72.26
2022-09-01T06:52:17.082Z,71.49
2022-09-01T06:54:44.990Z,71.58
2022-09-01T07:00:01.501Z,71.54
2022-09-01T07:02:30.366Z,69.79
2022-09-01T07:05:02.192Z,69.13
2022-09-01T07:10:23.205Z,67.77
2022-09-01T07:13:06.636Z,67.03
2022-09-01T07:18:26.396Z,65.59
2022-09-01T07:21:05.466Z,62.40
2022-09-01T07:24:05.931Z,62.82
2022-09-01T07:26:27.159Z,63.38
2022-09-01T07:29:04.294Z,61.34
2022-09-01T07:34:46.301Z,66.14
2022-09-01T07:45:31.281Z,63.43
2022-09-01T07:48:06.408Z,65.34
2022-09-01T07:51:09.017Z,65.60
2022-09-01T07:53:36.135Z,64.53
2022-09-01T07:56:15.817Z,61.68
2022-09-01T07:58:44.628Z,63.52
2022-09-01T08:01:17.371Z,62.53
2022-09-01T08:03:45.468Z,63.72
2022-09-01T08:06:19.457Z,61.94
2022-09-01T08:08:50.773Z,63.90
2022-09-01T08:11:40.105Z,64.37
2022-09-01T08:14:10.617Z,63.93
2022-09-01T08:16:40.072Z,64.16
2022-09-01T08:19:19.410Z,64.68
2022-09-01T08:21:47.230Z,64.89
2022-09-01T08:24:15.948Z,65.67
2022-09-01T08:26:45.153Z,66.99
2022-09-01T08:29:12.927Z,66.77
2022-09-01T08:31:40.743Z,65.65
2022-09-01T08:34:09.153Z,66.89
2022-09-01T08:36:37.709Z,65.45
2022-09-01T08:39:05.741Z,66.25
2022-09-01T08:41:47.083Z,66.02
2022-09-01T08:44:30.032Z,67.21
2022-09-01T08:47:04.542Z,64.66
2022-09-01T08:49:42.721Z,64.49
2022-09-01T08:52:21.164Z,64.78
2022-09-01T08:54:51.753Z,66.31
2022-09-01T08:57:22.594Z,66.33
2022-09-01T08:59:53.696Z,64.32
2022-09-01T09:02:36.604Z,64.15
2022-09-01T09:05:16.758Z,65.12
2022-09-01T09:08:08.288Z,65.15
2022-09-01T09:10:43.697Z,64.18
2022-09-01T09:13:19.578Z,64.55
2022-09-01T09:16:07.464Z,67.99
2022-09-01T09:18:54.840Z,65.12
2022-09-01T09:21:29.699Z,63.83
2022-09-01T09:24:04.896Z,62.49
2022-09-01T09:26:48.059Z,65.45
2022-09-01T09:29:15.814Z,64.01
2022-09-01T09:31:50.045Z,65.19
2022-09-01T09:34:32.545Z,66.32
2022-09-01T09:37:17.374Z,66.22
2022-09-01T09:39:45.375Z,63.03
2022-09-01T09:42:16.198Z,63.93
2022-09-01T09:44:46.724Z,63.19
2022-09-01T09:47:46.763Z,64.93
2022-09-01T09:50:27.194Z,63.65
2022-09-01T09:53:12.876Z,63.74
2022-09-01T09:55:56.320Z,66.28
2022-09-01T09:58:26.554Z,67.66
2022-09-01T10:01:07.905Z,70.38
2022-09-01T10:03:44.424Z,71.09
2022-09-01T10:06:14.934Z,70.97
2022-09-01T10:08:45.880Z,71.48
2022-09-01T10:11:32.843Z,70.55
2022-09-01T10:14:07.390Z,69.47
2022-09-01T10:16:39.874Z,68.96
2022-09-01T10:19:14.070Z,68.61
2022-09-01T10:21:46.329Z,67.15
2022-09-01T10:24:27.082Z,66.98
2022-09-01T10:27:01.666Z,65.75
2022-09-01T10:29:35.180Z,66.18
2022-09-01T10:32:31.837Z,64.96
2022-09-01T10:35:04.654Z,65.32
2022-09-01T10:37:33.325Z,64.74
2022-09-01T10:40:30.308Z,64.31
2022-09-01T10:43:05.403Z,64.81
2022-09-01T10:45:35.209Z,66.10
2022-09-01T10:48:31.141Z,64.06
2022-09-01T10:51:38.879Z,65.61
2022-09-01T10:54:08.543Z,65.79
2022-09-01T10:56:44.267Z,67.38
2022-09-01T10:59:38.608Z,66.23
2022-09-01T11:02:26.009Z,63.43
2022-09-01T11:05:22.426Z,63.33
2022-09-01T11:08:15.061Z,62.23
2022-09-01T11:10:53.465Z,64.28
2022-09-01T11:13:37.356Z,64.59
2022-09-01T11:16:47.925Z,65.59
2022-09-01T11:19:36.343Z,62.84
2022-09-01T11:22:15.883Z,63.10
2022-09-01T11:25:39.484Z,64.68
2022-09-01T11:28:42.835Z,64.67
2022-09-01T11:31:33.183Z,63.41
2022-09-01T11:34:10.982Z,62.38
2022-09-01T11:36:49.345Z,63.50
2022-09-01T11:39:31.024Z,63.03
2022-09-01T11:42:04.317Z,64.06
2022-09-01T11:44:42.525Z,63.32
2022-09-01T11:47:16.231Z,64.13
2022-09-01T11:49:51.909Z,62.88
2022-09-01T11:52:22.403Z,63.42
2022-09-01T11:54:51.447Z,63.95
2022-09-01T11:57:32.269Z,63.94
2022-09-01T12:00:05.903Z,63.18
2022-09-01T12:02:36.878Z,64.37
2022-09-01T12:05:26.064Z,62.55
2022-09-01T12:07:54.314Z,62.73
2022-09-01T12:10:29.363Z,61.53
2022-09-01T12:13:02.779Z,59.94
2022-09-01T12:15:34.980Z,61.95
2022-09-01T12:18:18.932Z,63.42
2022-09-01T12:23:25.435Z,62.40
2022-09-01T12:25:56.072Z,62.15
2022-09-01T12:28:25.060Z,63.59
2022-09-01T12:30:55.938Z,63.33
2022-09-01T12:33:25.731Z,64.38
2022-09-01T12:35:59.321Z,62.80
2022-09-01T12:38:31.411Z,62.76
2022-09-01T12:41:00.042Z,62.31
2022-09-01T12:43:37.074Z,63.48
2022-09-01T12:46:09.384Z,63.22
2022-09-01T12:48:40.368Z,62.18
2022-09-01T12:51:19.300Z,62.41
2022-09-01T12:53:53.890Z,61.76
2022-09-01T12:56:29.802Z,61.18
2022-09-01T12:59:14.185Z,60.87
2022-09-01T13:01:45.412Z,62.38
2022-09-01T13:04:25.666Z,62.63
2022-09-01T13:06:54.708Z,63.16
2022-09-01T13:09:22.628Z,63.38
2022-09-01T13:12:07.671Z,60.49
2022-09-01T13:14:35.952Z,61.41
2022-09-01T13:17:13.995Z,61.06
2022-09-01T13:19:42.543Z,58.91
2022-09-01T13:22:10.705Z,58.42
2022-09-01T13:24:39.643Z,60.07
2022-09-01T13:27:23.677Z,61.36
2022-09-01T13:29:52.299Z,60.11
2022-09-01T13:32:23.953Z,61.51
2022-09-01T13:34:53.883Z,61.63
2022-09-01T13:37:23.669Z,61.31
2022-09-01T13:39:51.936Z,60.98
2022-09-01T13:42:20.263Z,60.96
2022-09-01T13:44:52.364Z,59.91
2022-09-01T13:47:29.000Z,59.40
2022-09-01T13:50:14.492Z,59.33
2022-09-01T13:52:45.931Z,58.93
2022-09-01T13:55:25.640Z,59.54
2022-09-01T13:57:55.835Z,60.30
2022-09-01T14:00:26.257Z,61.00
2022-09-01T14:02:59.649Z,62.23
2022-09-01T14:05:30.250Z,61.52
2022-09-01T14:07:58.762Z,61.29
2022-09-01T14:10:28.165Z,62.30
2022-09-01T14:12:56.236Z,61.95
2022-09-01T14:15:27.315Z,62.12
2022-09-01T14:17:58.177Z,63.69
2022-09-01T14:20:31.408Z,63.97
2022-09-01T14:23:06.570Z,63.83
2022-09-01T14:25:35.799Z,63.98
2022-09-01T14:28:04.031Z,63.52
2022-09-01T14:30:33.155Z,64.17
2022-09-01T14:33:03.838Z,63.71
2022-09-01T14:35:34.305Z,64.44
2022-09-01T14:38:05.316Z,63.69
2022-09-01T14:40:33.879Z,64.76
2022-09-01T14:43:01.854Z,62.82
2022-09-01T14:45:29.951Z,63.25
2022-09-01T14:48:00.752Z,65.02
2022-09-01T14:50:32.707Z,63.85
2022-09-01T14:53:03.089Z,63.41
2022-09-01T14:55:32.780Z,64.04
2022-09-01T14:58:00.915Z,64.45
2022-09-01T15:00:32.019Z,64.16
2022-09-01T15:03:00.206Z,64.08
2022-09-01T15:05:29.467Z,65.20
2022-09-01T15:08:07.673Z,64.94
2022-09-01T15:10:36.584Z,64.04
2022-09-01T15:13:05.434Z,64.15
2022-09-01T15:15:33.730Z,64.05
2022-09-01T15:18:02.369Z,66.49
2022-09-01T15:20:47.088Z,66.62
2022-09-01T15:23:16.985Z,67.29
2022-09-01T15:25:45.157Z,66.82
2022-09-01T15:28:13.309Z,68.77
2022-09-01T15:30:42.477Z,68.75
2022-09-01T15:33:15.492Z,69.24
2022-09-01T15:35:45.512Z,69.34
2022-09-01T15:38:17.702Z,69.39
2022-09-01T15:40:50.214Z,69.61
2022-09-01T15:43:26.660Z,69.24
2022-09-01T15:45:54.488Z,70.03
2022-09-01T15:48:22.223Z,70.51
2022-09-01T15:50:51.547Z,70.77
2022-09-01T15:53:19.559Z,71.49
2022-09-01T15:55:53.206Z,71.13
2022-09-01T15:58:20.925Z,71.32
2022-09-01T16:00:48.800Z,72.24
2022-09-01T16:03:16.829Z,71.79
2022-09-01T16:05:44.742Z,72.52
2022-09-01T16:08:13.923Z,72.94
2022-09-01T16:10:42.264Z,73.44
2022-09-01T16:13:11.336Z,73.41
2022-09-01T16:15:49.787Z,73.03
2022-09-01T16:18:29.869Z,72.91
2022-09-01T16:21:04.998Z,73.24
2022-09-01T16:23:42.117Z,72.88
2022-09-01T16:26:11.792Z,73.48
2022-09-01T16:28:40.542Z,73.84
2022-09-01T16:31:13.932Z,73.56
2022-09-01T16:33:48.025Z,74.09
2022-09-01T16:36:27.739Z,82.85
2022-09-01T16:39:03.555Z,87.70
2022-09-01T16:41:43.937Z,93.55
2022-09-01T16:44:24.463Z,90.97
2022-09-01T16:47:02.819Z,90.19
2022-09-01T16:49:39.079Z,90.52
2022-09-01T16:52:16.423Z,88.34
2022-09-01T16:55:01.003Z,86.83
2022-09-01T16:57:38.181Z,88.11
2022-09-01T17:00:11.122Z,87.35
2022-09-01T17:02:50.316Z,86.89
2022-09-01T17:05:25.745Z,84.08
2022-09-01T17:07:59.025Z,84.03
2022-09-01T17:10:37.232Z,81.11
2022-09-01T17:13:17.442Z,76.31
2022-09-01T17:15:50.931Z,82.43
2022-09-01T17:18:26.113Z,83.04
2022-09-01T17:21:02.080Z,81.73
2022-09-01T17:23:38.093Z,80.23
2022-09-01T17:26:19.265Z,82.25
2022-09-01T17:28:55.242Z,83.67
2022-09-01T17:31:48.823Z,84.03
2022-09-01T17:34:29.399Z,78.93
2022-09-01T17:37:06.974Z,79.61
2022-09-01T17:39:45.060Z,81.66
2022-09-01T17:42:25.008Z,83.29
2022-09-01T17:44:56.496Z,81.85
2022-09-01T17:47:35.850Z,80.17
2022-09-01T17:50:15.191Z,77.88
2022-09-01T17:52:54.738Z,77.28
2022-09-01T17:55:36.796Z,78.82
2022-09-01T17:58:16.693Z,78.16
2022-09-01T18:00:54.441Z,80.80
2022-09-01T18:03:45.450Z,84.59
2022-09-01T18:06:22.271Z,84.18
2022-09-01T18:08:53.978Z,83.51
2022-09-01T18:11:28.006Z,82.31
2022-09-01T18:14:03.622Z,81.70
2022-09-01T18:16:33.398Z,81.16
2022-09-01T18:19:05.612Z,79.07
2022-09-01T18:21:37.347Z,79.18
2022-09-01T18:24:15.132Z,78.74
2022-09-01T18:26:48.264Z,79.02
2022-09-01T18:29:17.441Z,79.06
2022-09-01T18:32:19.007Z,76.47
2022-09-01T18:35:15.667Z,78.55
2022-09-01T18:37:58.067Z,80.92
2022-09-01T18:40:29.973Z,80.55
2022-09-01T18:43:05.923Z,78.20
2022-09-01T18:45:41.898Z,79.37
2022-09-01T18:48:40.805Z,80.50
2022-09-01T18:51:36.560Z,80.47
2022-09-01T18:54:26.681Z,78.31
2022-09-01T19:00:30.723Z,82.51
2022-09-01T19:03:08.910Z,82.86
2022-09-01T19:05:54.684Z,84.75
2022-09-01T19:08:44.714Z,86.00
2022-09-01T19:11:25.476Z,87.10
2022-09-01T19:14:06.394Z,88.28
2022-09-01T19:16:46.400Z,88.62
2022-09-01T19:19:27.115Z,89.37
2022-09-01T19:22:05.173Z,89.88
2022-09-01T19:25:08.352Z,90.33
2022-09-01T19:27:37.854Z,90.68
2022-09-01T19:30:07.788Z,91.15
2022-09-01T19:32:37.256Z,91.17
2022-09-01T19:35:11.905Z,91.62
2022-09-01T19:37:41.008Z,91.93
2022-09-01T19:40:10.844Z,92.22
2022-09-01T19:42:43.910Z,92.66
2022-09-01T19:45:17.873Z,92.73
2022-09-01T19:47:52.435Z,92.66
2022-09-01T19:50:25.283Z,92.80
2022-09-01T19:52:56.871Z,93.01
2022-09-01T19:55:31.530Z,93.33
2022-09-01T19:58:04.384Z,93.25
2022-09-01T20:00:41.919Z,93.65
2022-09-01T20:03:14.405Z,93.87
2022-09-01T20:05:49.029Z,93.95
2022-09-01T20:08:23.321Z,94.27
2022-09-01T20:10:59.812Z,95.53
2022-09-01T20:13:43.837Z,95.31
2022-09-01T20:16:24.378Z,94.88
2022-09-01T20:18:59.234Z,95.20
2022-09-01T20:21:28.397Z,95.44
2022-09-01T20:24:01.337Z,95.46
2022-09-01T20:26:32.827Z,95.32
2022-09-01T20:29:06.940Z,95.23
2022-09-01T20:31:38.455Z,95.56
2022-09-01T20:34:14.170Z,96.11
2022-09-01T20:36:47.157Z,95.58
2022-09-01T20:39:38.137Z,96.23
2022-09-01T20:42:13.852Z,96.03
2022-09-01T20:44:46.325Z,96.45
2022-09-01T20:47:14.138Z,96.60
2022-09-01T20:49:42.016Z,96.62
2022-09-01T20:52:16.399Z,96.74
2022-09-01T20:54:51.313Z,97.67
2022-09-01T20:57:32.139Z,96.78
2022-09-01T21:00:05.264Z,97.38
2022-09-01T21:02:43.073Z,97.84
2022-09-01T21:05:23.743Z,97.72
2022-09-01T21:08:01.843Z,97.99
2022-09-01T21:10:36.538Z,98.48
2022-09-01T21:13:19.757Z,98.21
2022-09-01T21:15:59.299Z,99.17
2022-09-01T21:18:45.525Z,99.21
2022-09-01T21:21:20.677Z,99.51
2022-09-01T21:23:49.898Z,99.44
2022-09-01T21:26:21.189Z,99.49
2022-09-01T21:28:54.217Z,99.38
2022-09-01T21:31:22.357Z,100.00
2022-09-01T21:33:50.885Z,100.00
2022-09-01T21:36:19.220Z,100.00
2022-09-01T21:38:47.020Z,100.00
2022-09-01T21:41:16.226Z,100.00
2022-09-01T21:43:46.834Z,100.00
2022-09-01T21:46:16.398Z,100.00
2022-09-01T21:48:44.324Z,100.00
2022-09-01T21:51:12.140Z,100.00
2022-09-01T21:53:39.972Z,100.00
2022-09-01T21:56:07.715Z,100.00
2022-09-01T21:58:39.142Z,100.00
2022-09-01T22:01:08.024Z,100.00
2022-09-01T22:03:38.390Z,100.00
2022-09-01T22:06:06.749Z,100.00
2022-09-01T22:08:34.531Z,100.00
2022-09-01T22:11:02.283Z,100.00
2022-09-01T22:13:30.162Z,100.00
2022-09-01T22:15:59.278Z,100.00
2022-09-01T22:18:27.262Z,100.00
2022-09-01T22:21:02.773Z,100.00
2022-09-01T22:23:30.918Z,100.00
2022-09-01T22:25:59.152Z,100.00
2022-09-01T22:28:27.227Z,100.00
2022-09-01T22:30:55.233Z,100.00
2022-09-01T22:33:25.132Z,100.00
2022-09-01T22:35:55.827Z,100.00
2022-09-01T22:38:24.750Z,100.00
2022-09-01T22:40:55.094Z,100.00
2022-09-01T22:43:24.136Z,100.00
2022-09-01T22:45:52.731Z,100.00
2022-09-01T22:48:23.209Z,100.00
2022-09-01T22:50:53.282Z,100.00
2022-09-01T22:53:22.941Z,100.00
2022-09-01T22:55:52.611Z,100.00
2022-09-01T22:58:21.031Z,100.00
2022-09-01T23:00:52.129Z,100.00
2022-09-01T23:03:22.362Z,100.00
2022-09-01T23:06:02.848Z,100.00
2022-09-01T23:08:31.058Z,100.00
2022-09-01T23:10:59.044Z,100.00
2022-09-01T23:13:28.369Z,100.00
2022-09-01T23:15:57.465Z,100.00
2022-09-01T23:18:26.127Z,100.00
2022-09-01T23:20:55.487Z,100.00
2022-09-01T23:23:23.424Z,100.00
2022-09-01T23:25:53.571Z,100.00
2022-09-01T23:28:21.537Z,100.00
2022-09-01T23:30:50.997Z,100.00
2022-09-01T23:33:20.628Z,100.00
2022-09-01T23:35:50.147Z,100.00
2022-09-01T23:38:21.089Z,100.00
2022-09-01T23:40:53.867Z,100.00
2022-09-01T23:43:24.309Z,100.00
2022-09-01T23:45:54.062Z,100.00
2022-09-01T23:48:22.128Z,100.00
2022-09-01T23:50:53.670Z,100.00
2022-09-01T23:53:26.243Z,100.00
2022-09-01T23:55:59.370Z,100.00
2022-09-01T23:58:29.317Z,100.00
